Time;durP1;ratioP1;P1;durP2;ratioP2;P2;SDS_P1;SDS_P2;PMS_P1;PMS_P2;Temp;Humidity;BMP_temperature;BMP_pressure;BME280_temperature;BME280_humidity;BME280_pressure;Samples;Min_cycle;Max_cycle;Signal;HPM_P1;HPM_P2
2021/03/12 00:01:34;;;;;;;2.07;1.57;;;;;;;;;;5115145;28;20175;-45
2021/03/12 00:03:59;;;;;;;2.30;1.30;;;;;;;;;;5115479;28;20179;-44
2021/03/12 00:06:24;;;;;;;1.60;1.50;;;;;;;;;;5115245;28;20196;-45
2021/03/12 00:08:50;;;;;;;2.53;1.40;;;;;;;;;;5115347;28;20262;-44
2021/03/12 00:11:15;;;;;;;3.70;1.30;;;;;;;;;;5115499;28;20179;-48
2021/03/12 00:13:40;;;;;;;1.77;1.30;;;;;;;;;;5112852;28;20184;-43
2021/03/12 00:16:06;;;;;;;1.30;1.20;;;;;;;;;;5111899;28;20183;-43
2021/03/12 00:18:34;;;;;;;1.97;1.50;;;;;;;;;;5112166;28;20196;-43
2021/03/12 00:20:59;;;;;;;1.13;1.10;;;;;;;;;;5112304;28;20202;-44
2021/03/12 00:23:24;;;;;;;4.20;1.57;;;;;;;;;;5111923;28;20588;-44
2021/03/12 00:25:50;;;;;;;4.03;1.40;;;;;;;;;;5111936;28;20177;-43
2021/03/12 00:28:16;;;;;;;1.50;1.40;;;;;;;;;;5111701;28;20213;-43
2021/03/12 00:30:42;;;;;;;3.97;1.23;;;;;;;;;;5111729;28;20526;-44
2021/03/12 00:33:07;;;;;;;1.40;1.30;;;;;;;;;;5111947;28;20604;-44
2021/03/12 00:35:34;;;;;;;3.33;1.60;;;;;;;;;;5111906;28;20269;-43
2021/03/12 00:37:59;;;;;;;1.90;1.53;;;;;;;;;;5111414;27;20180;-44
2021/03/12 00:40:26;;;;;;;2.80;2.10;;;;;;;;;;5111830;28;20654;-43
2021/03/12 00:42:52;;;;;;;2.40;2.20;;;;;;;;;;5111362;28;20175;-43
2021/03/12 00:45:18;;;;;;;3.10;2.90;;;;;;;;;;5110624;28;21194;-43
2021/03/12 00:47:43;;;;;;;2.90;2.70;;;;;;;;;;5116795;27;20180;-43
2021/03/12 00:50:10;;;;;;;2.67;2.47;;;;;;;;;;5111901;28;20612;-44
2021/03/12 00:52:35;;;;;;;5.53;3.03;;;;;;;;;;5111818;28;20205;-43
2021/03/12 00:55:00;;;;;;;4.60;2.93;;;;;;;;;;5111225;28;20682;-43
2021/03/12 00:57:25;;;;;;;4.23;3.00;;;;;;;;;;5110906;28;20544;-44
2021/03/12 00:59:51;;;;;;;3.05;2.65;;;;;;;;;;5111615;28;20707;-44
2021/03/12 01:02:16;;;;;;;3.40;2.90;;;;;;;;;;5110922;28;20307;-44
2021/03/12 01:04:41;;;;;;;2.55;2.35;;;;;;;;;;5106868;28;20170;-44
2021/03/12 01:07:06;;;;;;;2.50;2.30;;;;;;;;;;5110056;28;20215;-44
2021/03/12 01:09:31;;;;;;;2.50;2.35;;;;;;;;;;5111353;28;20646;-44
2021/03/12 01:11:57;;;;;;;2.40;2.10;;;;;;;;;;5111033;28;20235;-44
2021/03/12 01:14:23;;;;;;;3.57;2.70;;;;;;;;;;5111608;28;20574;-44
2021/03/12 01:16:48;;;;;;;3.17;2.63;;;;;;;;;;5110744;28;20174;-43
2021/03/12 01:19:14;;;;;;;2.97;2.13;;;;;;;;;;5111298;28;20638;-44
2021/03/12 01:21:39;;;;;;;3.33;2.30;;;;;;;;;;5111476;28;20244;-43
2021/03/12 01:24:05;;;;;;;3.15;1.98;;;;;;;;;;5110648;28;20172;-43
2021/03/12 01:26:30;;;;;;;2.03;1.60;;;;;;;;;;5109396;28;20182;-42
2021/03/12 01:28:55;;;;;;;1.60;1.50;;;;;;;;;;5111107;28;20319;-43
2021/03/12 01:31:20;;;;;;;1.43;1.33;;;;;;;;;;5111229;28;20167;-42
2021/03/12 01:33:45;;;;;;;2.22;1.60;;;;;;;;;;5110788;28;20196;-44
2021/03/12 01:36:10;;;;;;;1.60;1.47;;;;;;;;;;5111126;28;20266;-43
2021/03/12 01:38:36;;;;;;;1.87;1.40;;;;;;;;;;5110279;28;20545;-43
2021/03/12 01:41:01;;;;;;;2.33;1.30;;;;;;;;;;5111063;28;20250;-43
2021/03/12 01:43:26;;;;;;;2.03;1.40;;;;;;;;;;5110570;28;20223;-43
2021/03/12 01:45:51;;;;;;;1.60;1.33;;;;;;;;;;5110025;28;20661;-43
2021/03/12 01:48:18;;;;;;;1.67;1.47;;;;;;;;;;5110573;28;20656;-44
2021/03/12 01:50:49;;;;;;;1.80;1.37;;;;;;;;;;5110193;28;20588;-44
2021/03/12 01:53:15;;;;;;;1.73;1.60;;;;;;;;;;5109071;28;20637;-44
2021/03/12 01:55:40;;;;;;;1.40;1.30;;;;;;;;;;5105821;28;20628;-43
2021/03/12 01:58:06;;;;;;;2.70;1.77;;;;;;;;;;5110469;28;20690;-44
2021/03/12 02:00:32;;;;;;;1.57;1.47;;;;;;;;;;5111998;27;20240;-45
2021/03/12 02:02:57;;;;;;;3.03;1.83;;;;;;;;;;5115545;27;20177;-43
2021/03/12 02:05:23;;;;;;;4.30;3.60;;;;;;;;;;5109781;28;20189;-44
2021/03/12 02:07:48;;;;;;;4.07;3.67;;;;;;;;;;5109993;28;20173;-43
2021/03/12 02:10:16;;;;;;;5.47;4.30;;;;;;;;;;5110269;28;20178;-44
2021/03/12 02:13:07;;;;;;;4.07;3.77;;;;;;;;;;5110230;28;20313;-43
2021/03/12 02:15:36;;;;;;;6.00;4.40;;;;;;;;;;5110187;27;20596;-43
2021/03/12 02:18:20;;;;;;;4.37;4.00;;;;;;;;;;5091456;28;20682;-44
2021/03/12 02:21:04;;;;;;;4.30;3.90;;;;;;;;;;5100766;28;20629;-43
2021/03/12 02:23:41;;;;;;;4.27;3.90;;;;;;;;;;5110193;28;20610;-43
2021/03/12 02:26:14;;;;;;;4.10;3.70;;;;;;;;;;5109852;28;21275;-44
2021/03/12 02:28:40;;;;;;;4.20;3.90;;;;;;;;;;5109736;28;20628;-44
2021/03/12 02:31:06;;;;;;;4.60;4.20;;;;;;;;;;5109134;28;20591;-43
2021/03/12 02:33:32;;;;;;;4.50;4.10;;;;;;;;;;5109177;28;20713;-46
2021/03/12 02:35:58;;;;;;;4.30;3.90;;;;;;;;;;5107788;28;20616;-43
2021/03/12 02:38:25;;;;;;;4.63;4.23;;;;;;;;;;5109621;28;21146;-42
2021/03/12 02:40:51;;;;;;;5.80;3.53;;;;;;;;;;5109320;28;20230;-43
2021/03/12 02:43:17;;;;;;;3.60;3.30;;;;;;;;;;5110029;28;20587;-43
2021/03/12 02:45:42;;;;;;;5.20;2.53;;;;;;;;;;5109422;28;20699;-43
2021/03/12 02:48:07;;;;;;;3.40;3.10;;;;;;;;;;5109283;28;20615;-42
2021/03/12 02:50:33;;;;;;;2.90;1.93;;;;;;;;;;5108555;28;20186;-43
2021/03/12 02:52:58;;;;;;;2.10;1.60;;;;;;;;;;5109103;28;20290;-43
2021/03/12 02:55:23;;;;;;;4.03;1.97;;;;;;;;;;5109574;28;20563;-42
2021/03/12 02:57:49;;;;;;;2.40;1.77;;;;;;;;;;5109008;28;20674;-43
2021/03/12 03:00:14;;;;;;;3.10;1.60;;;;;;;;;;5108669;28;20219;-43
2021/03/12 03:02:40;;;;;;;3.77;1.73;;;;;;;;;;5109323;28;20175;-42
2021/03/12 03:05:06;;;;;;;1.43;1.30;;;;;;;;;;5109538;28;20173;-42
2021/03/12 03:07:31;;;;;;;4.77;1.40;;;;;;;;;;5108910;28;20589;-42
2021/03/12 03:09:56;;;;;;;1.80;1.60;;;;;;;;;;5109307;28;20236;-43
2021/03/12 03:12:23;;;;;;;5.60;1.90;;;;;;;;;;5109035;28;20167;-43
2021/03/12 03:14:50;;;;;;;1.60;1.30;;;;;;;;;;5109515;28;20181;-49
2021/03/12 03:17:16;;;;;;;2.60;2.07;;;;;;;;;;5109050;28;20616;-43
2021/03/12 03:19:44;;;;;;;2.80;1.70;;;;;;;;;;5108775;28;21003;-43
2021/03/12 03:22:09;;;;;;;4.80;1.63;;;;;;;;;;5109236;28;20591;-43
2021/03/12 03:24:34;;;;;;;2.40;2.07;;;;;;;;;;5108881;28;20602;-43
2021/03/12 03:26:59;;;;;;;3.63;1.50;;;;;;;;;;5109155;28;20226;-43
2021/03/12 03:29:25;;;;;;;1.73;1.63;;;;;;;;;;5109252;28;20688;-43
2021/03/12 03:31:50;;;;;;;1.93;1.53;;;;;;;;;;5108530;28;20216;-43
2021/03/12 03:34:16;;;;;;;1.60;1.30;;;;;;;;;;5109040;28;20174;-43
2021/03/12 03:36:42;;;;;;;3.83;1.60;;;;;;;;;;5108703;28;20236;-44
2021/03/12 03:39:07;;;;;;;2.73;1.63;;;;;;;;;;5108494;28;20363;-43
2021/03/12 03:41:34;;;;;;;2.60;1.57;;;;;;;;;;5109177;28;20604;-44
2021/03/12 03:43:59;;;;;;;2.23;1.60;;;;;;;;;;5107918;28;20173;-43
2021/03/12 03:46:25;;;;;;;2.80;1.80;;;;;;;;;;5108522;28;20595;-44
2021/03/12 03:48:50;;;;;;;4.20;2.23;;;;;;;;;;5109996;28;20178;-44
2021/03/12 03:51:16;;;;;;;1.97;1.77;;;;;;;;;;5112652;28;20218;-44
2021/03/12 03:53:42;;;;;;;1.80;1.43;;;;;;;;;;5111585;28;20691;-43
2021/03/12 03:56:08;;;;;;;1.97;1.40;;;;;;;;;;5112935;28;20185;-43
2021/03/12 03:58:35;;;;;;;3.00;2.00;;;;;;;;;;5112296;28;20316;-43
2021/03/12 04:01:00;;;;;;;1.40;1.30;;;;;;;;;;5112088;28;20636;-43
2021/03/12 04:03:26;;;;;;;1.93;1.70;;;;;;;;;;5112641;27;21100;-42
2021/03/12 04:05:54;;;;;;;1.83;1.73;;;;;;;;;;5112445;28;20178;-43
2021/03/12 04:08:19;;;;;;;1.70;1.60;;;;;;;;;;5111899;28;20259;-44
2021/03/12 04:10:45;;;;;;;1.37;1.27;;;;;;;;;;5111824;28;20702;-43
2021/03/12 04:13:11;;;;;;;2.33;1.40;;;;;;;;;;5112334;28;20185;-43
2021/03/12 04:15:36;;;;;;;1.47;1.37;;;;;;;;;;5112367;28;20179;-43
2021/03/12 04:18:01;;;;;;;1.80;1.20;;;;;;;;;;5111456;28;20597;-43
2021/03/12 04:20:27;;;;;;;1.60;1.50;;;;;;;;;;5112177;28;20197;-43
2021/03/12 04:22:52;;;;;;;1.43;1.33;;;;;;;;;;5111430;28;20264;-43
2021/03/12 04:25:17;;;;;;;2.63;1.60;;;;;;;;;;5112128;28;20259;-43
2021/03/12 04:27:43;;;;;;;1.37;1.30;;;;;;;;;;5111319;28;20254;-43
2021/03/12 04:30:08;;;;;;;2.90;1.60;;;;;;;;;;5111621;28;20189;-43
2021/03/12 04:32:37;;;;;;;3.00;1.60;;;;;;;;;;5111498;28;20185;-43
2021/03/12 04:35:03;;;;;;;2.30;1.40;;;;;;;;;;5111613;28;20174;-43
2021/03/12 04:37:29;;;;;;;2.60;1.50;;;;;;;;;;5111992;28;20632;-43
2021/03/12 04:39:54;;;;;;;3.63;1.93;;;;;;;;;;5111600;28;20686;-43
2021/03/12 04:42:20;;;;;;;1.87;1.17;;;;;;;;;;5109167;28;20211;-43
2021/03/12 04:44:45;;;;;;;2.60;1.70;;;;;;;;;;5109030;28;20561;-42
2021/03/12 04:47:10;;;;;;;2.13;1.40;;;;;;;;;;5108553;28;20175;-42
2021/03/12 04:49:36;;;;;;;3.43;1.40;;;;;;;;;;5107985;28;20177;-43
2021/03/12 04:52:01;;;;;;;1.47;1.20;;;;;;;;;;5108084;28;20188;-43
2021/03/12 04:54:28;;;;;;;2.10;1.60;;;;;;;;;;5107073;28;20263;-43
2021/03/12 04:56:53;;;;;;;1.60;1.30;;;;;;;;;;5108077;28;20377;-43
2021/03/12 04:59:19;;;;;;;2.40;1.50;;;;;;;;;;5107120;28;20634;-44
2021/03/12 05:01:46;;;;;;;2.60;1.50;;;;;;;;;;5107642;28;20206;-44
2021/03/12 05:04:12;;;;;;;2.10;1.67;;;;;;;;;;5106726;28;20642;-44
2021/03/12 05:06:37;;;;;;;2.23;1.27;;;;;;;;;;5106939;27;20602;-43
2021/03/12 05:09:03;;;;;;;2.30;1.40;;;;;;;;;;5107078;28;20184;-43
2021/03/12 05:11:28;;;;;;;1.40;1.30;;;;;;;;;;5108401;28;20193;-44
2021/03/12 05:13:53;;;;;;;1.37;1.20;;;;;;;;;;5108066;28;20201;-42
2021/03/12 05:16:18;;;;;;;1.70;1.40;;;;;;;;;;5108270;28;20204;-42
2021/03/12 05:18:44;;;;;;;2.17;1.30;;;;;;;;;;5106842;28;20601;-43
2021/03/12 05:21:09;;;;;;;1.43;1.30;;;;;;;;;;5111821;27;20211;-43
2021/03/12 05:23:34;;;;;;;1.30;1.20;;;;;;;;;;5106022;27;20176;-44
2021/03/12 05:26:00;;;;;;;1.37;1.27;;;;;;;;;;5107769;28;20176;-43
2021/03/12 05:28:26;;;;;;;1.83;1.70;;;;;;;;;;5111562;27;20229;-46
2021/03/12 05:30:51;;;;;;;4.90;1.70;;;;;;;;;;5106148;28;20602;-43
2021/03/12 05:33:16;;;;;;;1.33;1.23;;;;;;;;;;5107775;27;20185;-43
2021/03/12 05:35:41;;;;;;;1.92;1.08;;;;;;;;;;5106556;28;20812;-43
2021/03/12 05:38:06;;;;;;;2.57;1.33;;;;;;;;;;5105436;28;20184;-43
2021/03/12 05:40:32;;;;;;;3.05;2.35;;;;;;;;;;5105912;28;20255;-42
2021/03/12 05:42:58;;;;;;;1.73;1.40;;;;;;;;;;5101474;28;20770;-43
2021/03/12 05:45:23;;;;;;;2.83;1.33;;;;;;;;;;5095594;28;20174;-43
2021/03/12 05:47:49;;;;;;;1.27;1.27;;;;;;;;;;5104947;28;20861;-43
2021/03/12 05:50:14;;;;;;;1.20;1.20;;;;;;;;;;5106943;28;20186;-43
2021/03/12 05:52:40;;;;;;;1.87;1.20;;;;;;;;;;5107528;28;20266;-43
2021/03/12 05:55:06;;;;;;;1.73;1.37;;;;;;;;;;5105151;28;20773;-43
2021/03/12 05:57:31;;;;;;;3.47;1.87;;;;;;;;;;5105337;28;20620;-43
2021/03/12 05:59:59;;;;;;;1.40;1.30;;;;;;;;;;5104057;28;20200;-43
2021/03/12 06:02:25;;;;;;;2.63;1.57;;;;;;;;;;5107553;28;20174;-43
2021/03/12 06:04:50;;;;;;;1.90;1.33;;;;;;;;;;5104534;28;20601;-43
2021/03/12 06:07:16;;;;;;;2.20;1.53;;;;;;;;;;5108736;27;20271;-43
2021/03/12 06:09:42;;;;;;;2.33;1.77;;;;;;;;;;5106436;28;20344;-43
2021/03/12 06:12:07;;;;;;;1.60;1.50;;;;;;;;;;5106603;28;21291;-43
2021/03/12 06:14:51;;;;;;;1.60;1.50;;;;;;;;;;5107188;27;20197;-44
2021/03/12 06:17:29;;;;;;;1.50;1.40;;;;;;;;;;5092728;28;20184;-43
2021/03/12 06:19:55;;;;;;;1.60;1.50;;;;;;;;;;5107013;28;20648;-43
2021/03/12 06:22:20;;;;;;;2.60;1.70;;;;;;;;;;5109910;28;20648;-42
2021/03/12 06:24:45;;;;;;;1.80;1.30;;;;;;;;;;5107973;28;20605;-43
2021/03/12 06:27:22;;;;;;;2.60;1.50;;;;;;;;;;5107476;28;20181;-43
2021/03/12 06:29:47;;;;;;;2.20;1.67;;;;;;;;;;5107748;28;20227;-42
2021/03/12 06:32:12;;;;;;;2.53;1.23;;;;;;;;;;5109914;28;21022;-42
2021/03/12 06:34:37;;;;;;;1.80;1.70;;;;;;;;;;5109154;28;20182;-43
2021/03/12 06:37:21;;;;;;;1.07;1.07;;;;;;;;;;5108814;28;20167;-43
2021/03/12 06:39:46;;;;;;;1.43;1.33;;;;;;;;;;5109254;28;20210;-43
2021/03/12 06:42:11;;;;;;;2.90;1.40;;;;;;;;;;5109907;28;20599;-42
2021/03/12 06:44:37;;;;;;;1.93;1.33;;;;;;;;;;5109453;28;20270;-42
2021/03/12 06:47:03;;;;;;;2.97;1.77;;;;;;;;;;5108992;28;20192;-43
2021/03/12 06:49:28;;;;;;;2.10;1.50;;;;;;;;;;5109643;28;20265;-42
2021/03/12 06:51:58;;;;;;;1.93;1.37;;;;;;;;;;5108910;28;21163;-43
2021/03/12 06:54:25;;;;;;;1.20;1.10;;;;;;;;;;5109161;28;20691;-43
2021/03/12 06:56:50;;;;;;;5.07;1.80;;;;;;;;;;5109113;28;20612;-43
2021/03/12 06:59:24;;;;;;;2.40;1.50;;;;;;;;;;5108744;27;20601;-43
2021/03/12 07:02:00;;;;;;;1.97;1.60;;;;;;;;;;5109121;28;20186;-43
2021/03/12 07:04:26;;;;;;;1.30;1.20;;;;;;;;;;5107642;28;20597;-43
2021/03/12 07:06:51;;;;;;;2.30;1.40;;;;;;;;;;5109128;28;20606;-43
2021/03/12 07:09:17;;;;;;;2.10;1.57;;;;;;;;;;5108808;28;20626;-43
2021/03/12 07:11:43;;;;;;;2.47;1.53;;;;;;;;;;5105750;28;20544;-43
2021/03/12 07:14:08;;;;;;;1.60;1.50;;;;;;;;;;5106184;28;20178;-43
2021/03/12 07:16:33;;;;;;;1.80;1.43;;;;;;;;;;5106420;28;20198;-43
2021/03/12 07:18:59;;;;;;;1.60;1.47;;;;;;;;;;5105176;28;20667;-44
2021/03/12 07:21:28;;;;;;;1.80;1.50;;;;;;;;;;5106540;28;20196;-43
2021/03/12 07:23:57;;;;;;;3.40;1.60;;;;;;;;;;5109178;28;20267;-43
2021/03/12 07:26:22;;;;;;;1.40;1.30;;;;;;;;;;5110402;28;20586;-44
2021/03/12 07:28:50;;;;;;;1.93;1.60;;;;;;;;;;5098542;28;20606;-44
2021/03/12 07:31:16;;;;;;;2.20;1.53;;;;;;;;;;5109189;28;20261;-44
2021/03/12 07:33:45;;;;;;;2.07;1.87;;;;;;;;;;5109331;28;21238;-44
2021/03/12 07:36:11;;;;;;;1.97;1.70;;;;;;;;;;5109939;28;20619;-44
2021/03/12 07:38:38;;;;;;;2.20;1.73;;;;;;;;;;5113179;27;20640;-42
2021/03/12 07:41:04;;;;;;;2.33;2.00;;;;;;;;;;5111731;28;20708;-45
2021/03/12 07:43:32;;;;;;;2.83;1.63;;;;;;;;;;5111792;28;21249;-43
2021/03/12 07:45:58;;;;;;;1.90;1.70;;;;;;;;;;5112013;28;20595;-43
2021/03/12 07:48:26;;;;;;;4.53;2.40;;;;;;;;;;5112570;28;21220;-43
2021/03/12 07:51:01;;;;;;;2.40;2.20;;;;;;;;;;5112501;27;20212;-43
2021/03/12 07:53:42;;;;;;;3.47;2.50;;;;;;;;;;5112377;28;20595;-43
2021/03/12 07:56:10;;;;;;;1.90;1.60;;;;;;;;;;5112343;28;20661;-43
2021/03/12 07:58:51;;;;;;;2.43;1.80;;;;;;;;;;5112632;28;20671;-44
2021/03/12 08:01:20;;;;;;;2.17;1.67;;;;;;;;;;5111904;28;20642;-43
2021/03/12 08:03:45;;;;;;;8.30;1.80;;;;;;;;;;5111986;28;20591;-44
2021/03/12 08:06:16;;;;;;;3.10;2.60;;;;;;;;;;5112201;28;20587;-43
2021/03/12 08:08:42;;;;;;;3.37;3.07;;;;;;;;;;5112311;28;20308;-43
2021/03/12 08:11:16;;;;;;;3.00;1.97;;;;;;;;;;5112105;28;20709;-44
2021/03/12 08:13:41;;;;;;;2.70;2.13;;;;;;;;;;5112394;28;20884;-44
2021/03/12 08:16:07;;;;;;;2.13;1.93;;;;;;;;;;5111820;28;20564;-43
2021/03/12 08:18:32;;;;;;;3.37;1.50;;;;;;;;;;5105221;27;20623;-44
2021/03/12 08:20:57;;;;;;;1.85;1.63;;;;;;;;;;5112335;28;20207;-43
2021/03/12 08:23:34;;;;;;;1.60;1.50;;;;;;;;;;5111995;28;20172;-43
2021/03/12 08:26:00;;;;;;;1.93;1.70;;;;;;;;;;5111838;28;20169;-43
2021/03/12 08:28:27;;;;;;;3.33;1.90;;;;;;;;;;5112021;28;20651;-47
2021/03/12 08:30:54;;;;;;;1.70;1.37;;;;;;;;;;5111428;28;20525;-43
2021/03/12 08:33:22;;;;;;;5.33;1.60;;;;;;;;;;5111653;28;20687;-43
2021/03/12 08:35:48;;;;;;;4.03;1.80;;;;;;;;;;5111206;28;20633;-43
2021/03/12 08:41:08;;;;;;;1.70;1.60;;;;;;;;;;5111863;28;20584;-44
2021/03/12 08:43:34;;;;;;;4.70;1.80;;;;;;;;;;5111186;28;21218;-44
2021/03/12 08:46:10;;;;;;;1.70;1.47;;;;;;;;;;5111416;28;20969;-44
2021/03/12 08:48:37;;;;;;;2.23;1.60;;;;;;;;;;5110631;28;20594;-44
2021/03/12 08:51:04;;;;;;;3.03;1.83;;;;;;;;;;5111415;28;20990;-43
2021/03/12 08:53:30;;;;;;;3.70;1.93;;;;;;;;;;5110919;28;21270;-43
2021/03/12 08:55:56;;;;;;;2.23;2.00;;;;;;;;;;5110999;28;20708;-44
2021/03/12 08:58:23;;;;;;;1.53;1.43;;;;;;;;;;5111409;28;20681;-43
2021/03/12 09:00:53;;;;;;;2.80;1.80;;;;;;;;;;5110865;28;21258;-43
2021/03/12 09:03:20;;;;;;;1.60;1.50;;;;;;;;;;5111342;27;20598;-42
2021/03/12 09:05:47;;;;;;;3.40;1.90;;;;;;;;;;5111369;28;20562;-43
2021/03/12 09:08:15;;;;;;;2.83;1.67;;;;;;;;;;5110994;28;20594;-42
2021/03/12 09:10:41;;;;;;;2.43;1.93;;;;;;;;;;5111180;28;20616;-43
2021/03/12 09:13:22;;;;;;;2.13;1.73;;;;;;;;;;5110292;28;21009;-43
2021/03/12 09:15:48;;;;;;;3.10;1.50;;;;;;;;;;5110991;28;20665;-44
2021/03/12 09:18:15;;;;;;;1.70;1.60;;;;;;;;;;5110779;28;20708;-43
2021/03/12 09:20:41;;;;;;;3.93;2.13;;;;;;;;;;5110469;28;21004;-42
2021/03/12 09:23:06;;;;;;;1.57;1.47;;;;;;;;;;5110231;28;20595;-43
2021/03/12 09:25:32;;;;;;;3.00;2.00;;;;;;;;;;5111104;28;20230;-43
2021/03/12 09:28:01;;;;;;;3.37;1.93;;;;;;;;;;5110005;28;20173;-44
2021/03/12 09:30:28;;;;;;;5.70;2.27;;;;;;;;;;5110692;28;20249;-44
2021/03/12 09:32:53;;;;;;;1.70;1.60;;;;;;;;;;5110401;28;20646;-45
2021/03/12 09:35:19;;;;;;;2.40;1.70;;;;;;;;;;5110469;28;20676;-44
2021/03/12 09:37:44;;;;;;;2.10;2.00;;;;;;;;;;5108865;28;20639;-44
2021/03/12 09:40:26;;;;;;;4.40;2.00;;;;;;;;;;5110326;28;20665;-44
2021/03/12 09:42:51;;;;;;;2.30;1.80;;;;;;;;;;5110355;28;20524;-44
2021/03/12 09:45:20;;;;;;;3.83;1.95;;;;;;;;;;5110504;27;20570;-42
2021/03/12 09:47:50;;;;;;;3.43;1.80;;;;;;;;;;5109256;28;20177;-44
2021/03/12 09:50:15;;;;;;;2.30;2.10;;;;;;;;;;5110475;28;20610;-44
2021/03/12 09:52:41;;;;;;;2.40;1.90;;;;;;;;;;5110544;28;20586;-43
2021/03/12 09:55:06;;;;;;;1.77;1.63;;;;;;;;;;5109728;28;20654;-44
2021/03/12 09:57:32;;;;;;;2.10;1.90;;;;;;;;;;5109807;28;20180;-45
2021/03/12 09:59:57;;;;;;;3.23;1.83;;;;;;;;;;5110109;28;20206;-44
2021/03/12 10:02:22;;;;;;;2.20;2.00;;;;;;;;;;5110448;28;20246;-46
2021/03/12 10:04:59;;;;;;;4.13;2.00;;;;;;;;;;5109842;28;20628;-42
2021/03/12 10:07:34;;;;;;;2.80;1.90;;;;;;;;;;5109481;28;20234;-42
2021/03/12 10:10:10;;;;;;;2.43;1.70;;;;;;;;;;5108989;28;20598;-42
2021/03/12 10:12:39;;;;;;;4.37;2.23;;;;;;;;;;5110231;28;21230;-42
2021/03/12 10:15:12;;;;;;;2.57;1.97;;;;;;;;;;5109931;28;20593;-42
2021/03/12 10:17:38;;;;;;;2.60;2.00;;;;;;;;;;5109345;28;20610;-43
2021/03/12 10:20:06;;;;;;;3.63;1.77;;;;;;;;;;5109190;28;20935;-43
2021/03/12 10:22:33;;;;;;;3.87;1.97;;;;;;;;;;5109099;28;20956;-46
2021/03/12 10:25:06;;;;;;;6.37;2.27;;;;;;;;;;5109699;28;20602;-44
2021/03/12 10:27:32;;;;;;;2.10;1.57;;;;;;;;;;5110045;28;20590;-43
2021/03/12 10:29:58;;;;;;;3.37;1.87;;;;;;;;;;5109088;28;20622;-44
2021/03/12 10:32:24;;;;;;;2.07;1.90;;;;;;;;;;5109158;28;20606;-44
2021/03/12 10:34:50;;;;;;;4.17;1.63;;;;;;;;;;5091748;28;20218;-44
2021/03/12 10:37:17;;;;;;;3.90;2.00;;;;;;;;;;5109673;28;20642;-44
2021/03/12 10:39:43;;;;;;;2.20;1.90;;;;;;;;;;5107621;28;20733;-44
2021/03/12 10:42:09;;;;;;;3.00;1.67;;;;;;;;;;5110099;28;20631;-44
2021/03/12 10:44:47;;;;;;;3.77;2.00;;;;;;;;;;5109718;28;20583;-44
2021/03/12 10:47:12;;;;;;;2.23;1.80;;;;;;;;;;5108605;28;20203;-44
2021/03/12 10:49:37;;;;;;;2.30;1.70;;;;;;;;;;5109002;28;20606;-44
2021/03/12 10:52:02;;;;;;;1.87;1.40;;;;;;;;;;5109420;28;20269;-45
2021/03/12 10:54:28;;;;;;;3.53;2.10;;;;;;;;;;5109192;28;20257;-44
2021/03/12 10:56:54;;;;;;;5.83;2.00;;;;;;;;;;5109105;28;20491;-44
2021/03/12 10:59:20;;;;;;;4.40;2.03;;;;;;;;;;5108870;28;20602;-44
2021/03/12 11:01:48;;;;;;;4.00;1.70;;;;;;;;;;5108956;28;20610;-44
2021/03/12 11:04:14;;;;;;;5.70;2.40;;;;;;;;;;5109671;28;20698;-45
2021/03/12 11:06:41;;;;;;;1.60;1.50;;;;;;;;;;5109462;28;20572;-44
2021/03/12 11:09:09;;;;;;;2.00;1.60;;;;;;;;;;5109097;28;20631;-45
2021/03/12 11:11:34;;;;;;;2.43;1.50;;;;;;;;;;5109070;28;20659;-44
2021/03/12 11:13:59;;;;;;;2.00;1.77;;;;;;;;;;5108686;28;20595;-43
2021/03/12 11:16:25;;;;;;;2.92;2.20;;;;;;;;;;5108873;28;20325;-44
2021/03/12 11:18:50;;;;;;;3.93;3.50;;;;;;;;;;5109235;28;20174;-44
2021/03/12 11:21:15;;;;;;;5.05;3.65;;;;;;;;;;5108832;28;20568;-43
2021/03/12 11:23:44;;;;;;;4.00;2.77;;;;;;;;;;5108898;28;20199;-43
2021/03/12 11:26:10;;;;;;;3.77;1.87;;;;;;;;;;5109015;28;20257;-44
2021/03/12 11:28:35;;;;;;;2.20;2.00;;;;;;;;;;5109394;28;20674;-43
2021/03/12 11:31:02;;;;;;;5.50;2.60;;;;;;;;;;5108499;28;20193;-43
2021/03/12 11:33:27;;;;;;;4.70;2.10;;;;;;;;;;5108640;28;20212;-43
2021/03/12 11:35:52;;;;;;;2.53;2.08;;;;;;;;;;5109434;28;20576;-43
2021/03/12 11:38:18;;;;;;;2.90;1.90;;;;;;;;;;5108834;28;20182;-43
2021/03/12 11:40:43;;;;;;;2.83;2.63;;;;;;;;;;5108381;28;20210;-44
2021/03/12 11:43:08;;;;;;;2.97;2.20;;;;;;;;;;5108755;28;20158;-43
2021/03/12 11:45:34;;;;;;;2.70;2.10;;;;;;;;;;5108441;28;20253;-44
2021/03/12 11:47:59;;;;;;;6.57;3.70;;;;;;;;;;5107807;28;20196;-43
2021/03/12 11:50:25;;;;;;;3.73;2.30;;;;;;;;;;5108660;28;20984;-43
2021/03/12 11:52:50;;;;;;;6.10;4.00;;;;;;;;;;5108553;28;20166;-43
2021/03/12 11:55:16;;;;;;;3.50;3.20;;;;;;;;;;5108269;28;20721;-44
2021/03/12 11:57:41;;;;;;;3.53;2.10;;;;;;;;;;5108844;28;20176;-44
2021/03/12 12:00:07;;;;;;;3.67;2.60;;;;;;;;;;5107321;28;20647;-43
2021/03/12 12:02:32;;;;;;;7.60;5.63;;;;;;;;;;5108639;28;20200;-42
2021/03/12 12:04:58;;;;;;;3.25;2.03;;;;;;;;;;5108444;28;20595;-44
2021/03/12 12:07:23;;;;;;;3.60;2.00;;;;;;;;;;5108299;28;20228;-44
2021/03/12 12:09:48;;;;;;;4.00;2.53;;;;;;;;;;5110788;27;20177;-44
2021/03/12 12:12:13;;;;;;;3.17;1.50;;;;;;;;;;5133006;27;20614;-44
2021/03/12 12:14:39;;;;;;;3.27;1.90;;;;;;;;;;5120273;27;20181;-44
2021/03/12 12:17:05;;;;;;;2.47;2.27;;;;;;;;;;5111747;28;20539;-44
2021/03/12 12:19:31;;;;;;;2.90;2.53;;;;;;;;;;5112033;28;20264;-46
2021/03/12 12:21:56;;;;;;;3.03;1.90;;;;;;;;;;5111277;28;20607;-45
2021/03/12 12:24:21;;;;;;;2.50;1.53;;;;;;;;;;5112008;28;20687;-46
2021/03/12 12:26:47;;;;;;;3.70;2.80;;;;;;;;;;5111755;28;20504;-44
2021/03/12 12:29:12;;;;;;;8.63;7.37;;;;;;;;;;5111241;28;20252;-44
2021/03/12 12:31:38;;;;;;;6.43;5.27;;;;;;;;;;5111357;28;20178;-44
2021/03/12 12:34:03;;;;;;;5.50;4.70;;;;;;;;;;5111518;28;20550;-45
2021/03/12 12:36:29;;;;;;;3.17;2.50;;;;;;;;;;5111594;28;20634;-45
2021/03/12 12:38:56;;;;;;;4.60;3.70;;;;;;;;;;5111447;28;20180;-44
2021/03/12 12:41:21;;;;;;;6.63;5.87;;;;;;;;;;5111044;28;20678;-43
2021/03/12 12:43:47;;;;;;;5.20;3.60;;;;;;;;;;5111545;28;20622;-44
2021/03/12 12:46:12;;;;;;;2.30;2.10;;;;;;;;;;5110700;28;20203;-44
2021/03/12 12:48:37;;;;;;;2.00;1.80;;;;;;;;;;5111594;28;20172;-51
2021/03/12 12:51:03;;;;;;;4.80;4.30;;;;;;;;;;5110693;28;20174;-42
2021/03/12 12:53:28;;;;;;;4.93;3.00;;;;;;;;;;5110273;28;20224;-43
2021/03/12 12:55:53;;;;;;;3.92;2.30;;;;;;;;;;5102010;28;20179;-44
2021/03/12 12:58:19;;;;;;;2.63;2.43;;;;;;;;;;5109278;28;20170;-44
2021/03/12 13:00:44;;;;;;;2.93;2.40;;;;;;;;;;5110640;28;20194;-44
2021/03/12 13:03:10;;;;;;;2.00;1.90;;;;;;;;;;5110204;27;20257;-44
2021/03/12 13:05:35;;;;;;;2.47;1.60;;;;;;;;;;5111386;28;20577;-43
2021/03/12 13:08:00;;;;;;;1.70;1.60;;;;;;;;;;5110879;28;20635;-43
2021/03/12 13:10:26;;;;;;;3.07;2.30;;;;;;;;;;5109598;28;20178;-45
2021/03/12 13:12:51;;;;;;;2.23;1.97;;;;;;;;;;5111114;28;20185;-44
2021/03/12 13:15:16;;;;;;;3.70;2.07;;;;;;;;;;5111190;28;20182;-44
2021/03/12 13:17:42;;;;;;;5.20;1.90;;;;;;;;;;5110462;28;20170;-44
2021/03/12 13:20:09;;;;;;;2.00;1.50;;;;;;;;;;5108419;28;20212;-44
2021/03/12 13:22:35;;;;;;;2.10;1.23;;;;;;;;;;5110869;28;20636;-44
2021/03/12 13:25:00;;;;;;;2.00;1.40;;;;;;;;;;5110008;28;20598;-44
2021/03/12 13:27:25;;;;;;;4.13;1.70;;;;;;;;;;5109966;28;20636;-44
2021/03/12 13:29:50;;;;;;;2.70;1.40;;;;;;;;;;5110476;28;20272;-44
2021/03/12 13:32:15;;;;;;;2.30;1.63;;;;;;;;;;5110453;28;20255;-43
2021/03/12 13:34:41;;;;;;;3.37;1.63;;;;;;;;;;5110357;28;20199;-44
2021/03/12 13:37:06;;;;;;;1.67;1.53;;;;;;;;;;5103919;28;20268;-44
2021/03/12 13:39:31;;;;;;;1.63;1.40;;;;;;;;;;5109921;28;20276;-44
2021/03/12 13:42:00;;;;;;;2.20;1.30;;;;;;;;;;5110264;28;20623;-43
2021/03/12 13:44:25;;;;;;;3.23;1.50;;;;;;;;;;5109398;28;20169;-43
2021/03/12 13:46:50;;;;;;;4.00;1.70;;;;;;;;;;5110370;28;20666;-44
2021/03/12 13:49:15;;;;;;;4.10;1.60;;;;;;;;;;5110424;28;20223;-42
2021/03/12 13:51:41;;;;;;;2.25;1.40;;;;;;;;;;5109883;28;20256;-42
2021/03/12 13:54:06;;;;;;;1.87;1.50;;;;;;;;;;5108894;28;20222;-42
2021/03/12 13:56:31;;;;;;;2.03;1.53;;;;;;;;;;5104761;28;20648;-42
2021/03/12 13:58:56;;;;;;;1.33;1.23;;;;;;;;;;5103857;28;20183;-43
2021/03/12 14:01:21;;;;;;;1.80;1.45;;;;;;;;;;5108551;28;20202;-43
2021/03/12 14:03:47;;;;;;;2.90;1.80;;;;;;;;;;5103357;28;20230;-44
2021/03/12 14:06:12;;;;;;;1.60;1.50;;;;;;;;;;5109880;28;20173;-43
2021/03/12 14:08:37;;;;;;;3.07;1.60;;;;;;;;;;5109658;28;20187;-43
2021/03/12 14:11:03;;;;;;;3.10;1.63;;;;;;;;;;5108566;28;20692;-43
2021/03/12 14:13:28;;;;;;;1.70;1.47;;;;;;;;;;5108419;28;20267;-42
2021/03/12 14:15:53;;;;;;;1.67;1.57;;;;;;;;;;5109771;28;20261;-44
2021/03/12 14:18:18;;;;;;;3.00;1.63;;;;;;;;;;5109165;28;20707;-43
2021/03/12 14:20:43;;;;;;;3.20;1.47;;;;;;;;;;5109565;28;20198;-43
2021/03/12 14:23:09;;;;;;;2.17;1.63;;;;;;;;;;5108964;28;20247;-44
2021/03/12 14:25:35;;;;;;;2.53;1.43;;;;;;;;;;5109835;28;20386;-43
2021/03/12 14:28:01;;;;;;;3.00;1.70;;;;;;;;;;5109064;28;20581;-44
2021/03/12 14:30:26;;;;;;;2.63;1.57;;;;;;;;;;5109054;28;20615;-44
2021/03/12 14:32:51;;;;;;;1.87;1.53;;;;;;;;;;5108369;28;20230;-44
2021/03/12 14:35:16;;;;;;;1.70;1.60;;;;;;;;;;5109785;28;20173;-43
2021/03/12 14:37:41;;;;;;;1.90;1.80;;;;;;;;;;5109082;28;20327;-44
2021/03/12 14:40:07;;;;;;;2.00;1.60;;;;;;;;;;5108053;28;20196;-44
2021/03/12 14:42:32;;;;;;;2.23;1.70;;;;;;;;;;5106726;28;20227;-44